Eira — OJJP — position and weather

sailwx.info

Track history (hours):
 
Tides and Currents Weather Stations Pressure Air Temp Water Temp Dewpoint Dewpoint Depression Visibility Wind Speed Wind Dir Waves Ship Positions

Eira

Last reported at 2014-Jul-29 06:31 UTC. Time now 2014-Jul-29 06:44 UTC.
Position N 59°53' E 030°11'.

Length 157 m; draft 5.9 m.

Type: Cargo ship. MMSI: 230935000.

Date/timePositionNaut miles runAvg speedWind from/ knotsBaromVisibWave heightAir tempDewpointWater temp
2014-Jul-29 06:31N 59°53' E 030°11'0 0.0
2014-Jul-29 05:31N 59°53' E 030°11'0 0.0
2014-Jul-28 22:07N 59°53' E 030°11'0 0.0
2014-Jul-28 15:31N 59°53' E 030°11'0 0.0
2014-Jul-28 14:25N 59°53' E 030°11'0 0.0
2014-Jul-28 10:28N 59°53' E 030°11'0 0.0
2014-Jul-28 09:31N 59°53' E 030°11'0 0.0
2014-Jul-28 08:28N 59°53' E 030°11'0 0.0
2014-Jul-28 07:25N 59°53' E 030°11'0 0.0
2014-Jul-28 06:25N 59°53' E 030°11'0 0.0
2014-Jul-28 05:31N 59°53' E 030°11'0 0.0
2014-Jul-28 04:31N 59°53' E 030°11'0 0.0
2014-Jul-28 03:31N 59°53' E 030°11'0 0.1
2014-Jul-28 02:32N 59°53' E 030°11'6 6.3
2014-Jul-28 01:32N 59°55' E 029°60'41 2.9
2014-Jul-27 11:21N 60°02' E 028°39'1210.8
2014-Jul-27 10:16N 60°06' E 028°18'1810.7
2014-Jul-27 08:34N 60°09' E 027°42'1211.2
2014-Jul-27 07:30N 60°03' E 027°21'1111.5
2014-Jul-27 06:34N 59°58' E 027°02'1212.1
2014-Jul-27 05:33N 59°59' E 026°38'8 8.3
2014-Jul-27 04:34N 60°06' E 026°30'2 2.2
2014-Jul-27 03:33N 60°09' E 026°29'0 0.0
2014-Jul-27 02:33N 60°09' E 026°29'0 0.0
2014-Jul-27 01:33N 60°09' E 026°29'0 0.0
2014-Jul-27 00:33N 60°09' E 026°29'0 0.0
2014-Jul-26 23:30N 60°09' E 026°29'0 0.0
2014-Jul-26 22:33N 60°09' E 026°29'0 0.0
2014-Jul-26 21:33N 60°09' E 026°29'0 0.0
2014-Jul-26 20:33N 60°09' E 026°29'0 0.0
2014-Jul-26 19:33N 60°09' E 026°29'0 0.0
2014-Jul-26 18:33N 60°09' E 026°29'0 0.0
2014-Jul-26 17:33N 60°09' E 026°29'0 0.0
2014-Jul-26 16:33N 60°09' E 026°29'0 0.0
2014-Jul-26 15:33N 60°09' E 026°29'0 0.0
2014-Jul-26 14:33N 60°09' E 026°29'0 0.0
2014-Jul-26 13:33N 60°09' E 026°29'0 0.0
2014-Jul-26 12:33N 60°09' E 026°29'0 0.1
2014-Jul-26 11:33N 60°09' E 026°29'0 0.1
2014-Jul-26 10:33N 60°09' E 026°29'0 0.0
2014-Jul-26 09:33N 60°09' E 026°29'0 0.0
2014-Jul-26 08:33N 60°09' E 026°29'0 0.0
2014-Jul-26 07:33N 60°09' E 026°29'0 0.0
2014-Jul-26 06:33N 60°09' E 026°29'0 0.0
2014-Jul-26 05:33N 60°09' E 026°29'0 0.0
2014-Jul-26 04:33N 60°09' E 026°29'0 0.0
2014-Jul-26 03:33N 60°09' E 026°29'0 0.0
2014-Jul-26 02:33N 60°09' E 026°29'0 0.0
2014-Jul-26 01:33N 60°09' E 026°29'0 0.0
2014-Jul-26 00:33N 60°09' E 026°29'0 0.0
2014-Jul-25 23:33N 60°09' E 026°29'0 0.0
2014-Jul-25 22:30N 60°09' E 026°29'0 0.0
2014-Jul-25 21:33N 60°09' E 026°29'0 0.0
2014-Jul-25 20:33N 60°09' E 026°29'0 0.0
2014-Jul-25 19:33N 60°09' E 026°29'0 0.0
2014-Jul-25 18:33N 60°09' E 026°29'0 0.1
2014-Jul-25 17:33N 60°09' E 026°29'0 0.1
2014-Jul-25 16:34N 60°09' E 026°29'1110.8
2014-Jul-25 15:34N 60°03' E 026°47'1110.9
2014-Jul-25 14:32N 60°02' E 027°10'1212.4
2014-Jul-25 13:33N 60°08' E 027°31'2711.2
2014-Jul-25 11:09N 60°05' E 028°24'712.1
2014-Jul-25 10:34N 60°03' E 028°38'1412.3
2014-Jul-25 09:27N 60°02' E 029°05'3310.3
2014-Jul-25 06:15N 59°54' E 030°09'1 2.0
2014-Jul-25 05:33N 59°53' E 030°11'0 0.0
2014-Jul-25 04:31N 59°53' E 030°11'0 0.0
2014-Jul-25 03:31N 59°53' E 030°11'0 0.0
2014-Jul-25 01:31N 59°53' E 030°11'0 0.0
2014-Jul-25 00:31N 59°53' E 030°11'0 0.0
2014-Jul-24 13:22N 59°53' E 030°11'0 0.0
2014-Jul-24 11:13N 59°53' E 030°11'0 0.0
2014-Jul-24 10:25N 59°53' E 030°11'0 0.0
2014-Jul-24 09:28N 59°53' E 030°11'0 0.0
2014-Jul-24 03:31N 59°53' E 030°11'1 0.8
2014-Jul-24 02:33N 59°53' E 030°10'7911.3
2014-Jul-23 19:31N 60°07' E 027°34'1413.5
2014-Jul-23 18:27N 59°59' E 027°09'1313.2
2014-Jul-23 17:29N 59°59' E 026°44'1213.5
2014-Jul-23 16:33N 59°57' E 026°19'1413.3
2014-Jul-23 15:30N 59°53' E 025°52'4213.0
2014-Jul-23 12:15N 59°44' E 024°30'4512.0
2014-Jul-23 08:29N 59°36' E 023°02'2311.9
2014-Jul-23 06:32N 59°35' E 022°16'1211.9
2014-Jul-23 05:33N 59°34' E 021°53'1211.9
2014-Jul-23 04:33N 59°36' E 021°30'1212.2
2014-Jul-23 03:33N 59°47' E 021°21'1311.7
2014-Jul-23 02:29N 59°56' E 021°39'1112.0
2014-Jul-23 01:33N 60°07' E 021°41'1010.3
2014-Jul-23 00:32N 60°16' E 021°53'44 1.6
2014-Jul-21 20:33N 59°32' E 021°44'310.9
2014-Jul-21 20:18N 59°32' E 021°49'811.1
2014-Jul-21 19:33N 59°33' E 022°05'1111.0
2014-Jul-21 18:33N 59°35' E 022°27'1110.7
2014-Jul-21 17:33N 59°37' E 022°47'1111.0
2014-Jul-21 16:33N 59°39' E 023°09'1110.9
2014-Jul-21 15:33N 59°41' E 023°30'1110.7
2014-Jul-21 14:33N 59°44' E 023°51'1110.6
2014-Jul-21 13:32N 59°46' E 024°12'1110.7
2014-Jul-21 12:33N 59°48' E 024°32'1110.6
2014-Jul-21 11:33N 59°50' E 024°53'1210.9
2014-Jul-21 10:29N 59°52' E 025°16'1011.2
2014-Jul-21 09:33N 59°55' E 025°36'1310.8
2014-Jul-21 08:23N 59°57' E 026°01'1910.6
2014-Jul-21 06:33N 60°01' E 026°39'57 2.3
2014-Jul-20 06:16N 59°41' E 028°25'36 2.0
2014-Jul-19 12:04N 60°08' E 027°36'913.0
2014-Jul-19 11:24N 60°03' E 027°21'1112.9
2014-Jul-19 10:33N 59°58' E 027°01'1313.2
2014-Jul-19 09:33N 59°59' E 026°35'1313.2
2014-Jul-19 08:33N 59°55' E 026°10'1313.0
2014-Jul-19 07:33N 59°52' E 025°45'1312.8
2014-Jul-19 06:33N 59°49' E 025°20'  
Track history (hours):
 
Tides and Currents Weather Stations Pressure Air Temp Water Temp Dewpoint Dewpoint Depression Visibility Wind Speed Wind Dir Waves Ship Positions

Eira

Last reported at 2014-Jul-29 06:31 UTC. Time now 2014-Jul-29 06:44 UTC.
Position N 59°53' E 030°11'.

Length 157 m; draft 5.9 m.

Type: Cargo ship. MMSI: 230935000.

Date/timePositionNaut miles runAvg speedWind from/ knotsBaromVisibWave heightAir tempDewpointWater temp
2014-Jul-29 06:31N 59°53' E 030°11'0 0.0
2014-Jul-29 05:31N 59°53' E 030°11'0 0.0
2014-Jul-28 22:07N 59°53' E 030°11'0 0.0
2014-Jul-28 15:31N 59°53' E 030°11'0 0.0
2014-Jul-28 14:25N 59°53' E 030°11'0 0.0
2014-Jul-28 10:28N 59°53' E 030°11'0 0.0
2014-Jul-28 09:31N 59°53' E 030°11'0 0.0
2014-Jul-28 08:28N 59°53' E 030°11'0 0.0
2014-Jul-28 07:25N 59°53' E 030°11'0 0.0
2014-Jul-28 06:25N 59°53' E 030°11'0 0.0
2014-Jul-28 05:31N 59°53' E 030°11'0 0.0
2014-Jul-28 04:31N 59°53' E 030°11'0 0.0
2014-Jul-28 03:31N 59°53' E 030°11'0 0.1
2014-Jul-28 02:32N 59°53' E 030°11'6 6.3
2014-Jul-28 01:32N 59°55' E 029°60'41 2.9
2014-Jul-27 11:21N 60°02' E 028°39'1210.8
2014-Jul-27 10:16N 60°06' E 028°18'1810.7
2014-Jul-27 08:34N 60°09' E 027°42'1211.2
2014-Jul-27 07:30N 60°03' E 027°21'1111.5
2014-Jul-27 06:34N 59°58' E 027°02'1212.1
2014-Jul-27 05:33N 59°59' E 026°38'8 8.3
2014-Jul-27 04:34N 60°06' E 026°30'2 2.2
2014-Jul-27 03:33N 60°09' E 026°29'0 0.0
2014-Jul-27 02:33N 60°09' E 026°29'0 0.0
2014-Jul-27 01:33N 60°09' E 026°29'0 0.0
2014-Jul-27 00:33N 60°09' E 026°29'0 0.0
2014-Jul-26 23:30N 60°09' E 026°29'0 0.0
2014-Jul-26 22:33N 60°09' E 026°29'0 0.0
2014-Jul-26 21:33N 60°09' E 026°29'0 0.0
2014-Jul-26 20:33N 60°09' E 026°29'0 0.0
2014-Jul-26 19:33N 60°09' E 026°29'0 0.0
2014-Jul-26 18:33N 60°09' E 026°29'0 0.0
2014-Jul-26 17:33N 60°09' E 026°29'0 0.0
2014-Jul-26 16:33N 60°09' E 026°29'0 0.0
2014-Jul-26 15:33N 60°09' E 026°29'0 0.0
2014-Jul-26 14:33N 60°09' E 026°29'0 0.0
2014-Jul-26 13:33N 60°09' E 026°29'0 0.0
2014-Jul-26 12:33N 60°09' E 026°29'0 0.1
2014-Jul-26 11:33N 60°09' E 026°29'0 0.1
2014-Jul-26 10:33N 60°09' E 026°29'0 0.0
2014-Jul-26 09:33N 60°09' E 026°29'0 0.0
2014-Jul-26 08:33N 60°09' E 026°29'0 0.0
2014-Jul-26 07:33N 60°09' E 026°29'0 0.0
2014-Jul-26 06:33N 60°09' E 026°29'0 0.0
2014-Jul-26 05:33N 60°09' E 026°29'0 0.0
2014-Jul-26 04:33N 60°09' E 026°29'0 0.0
2014-Jul-26 03:33N 60°09' E 026°29'0 0.0
2014-Jul-26 02:33N 60°09' E 026°29'0 0.0
2014-Jul-26 01:33N 60°09' E 026°29'0 0.0
2014-Jul-26 00:33N 60°09' E 026°29'0 0.0
2014-Jul-25 23:33N 60°09' E 026°29'0 0.0
2014-Jul-25 22:30N 60°09' E 026°29'0 0.0
2014-Jul-25 21:33N 60°09' E 026°29'0 0.0
2014-Jul-25 20:33N 60°09' E 026°29'0 0.0
2014-Jul-25 19:33N 60°09' E 026°29'0 0.0
2014-Jul-25 18:33N 60°09' E 026°29'0 0.1
2014-Jul-25 17:33N 60°09' E 026°29'0 0.1
2014-Jul-25 16:34N 60°09' E 026°29'1110.8
2014-Jul-25 15:34N 60°03' E 026°47'1110.9
2014-Jul-25 14:32N 60°02' E 027°10'1212.4
2014-Jul-25 13:33N 60°08' E 027°31'2711.2
2014-Jul-25 11:09N 60°05' E 028°24'712.1
2014-Jul-25 10:34N 60°03' E 028°38'1412.3
2014-Jul-25 09:27N 60°02' E 029°05'3310.3
2014-Jul-25 06:15N 59°54' E 030°09'1 2.0
2014-Jul-25 05:33N 59°53' E 030°11'0 0.0
2014-Jul-25 04:31N 59°53' E 030°11'0 0.0
2014-Jul-25 03:31N 59°53' E 030°11'0 0.0
2014-Jul-25 01:31N 59°53' E 030°11'0 0.0
2014-Jul-25 00:31N 59°53' E 030°11'0 0.0
2014-Jul-24 13:22N 59°53' E 030°11'0 0.0
2014-Jul-24 11:13N 59°53' E 030°11'0 0.0
2014-Jul-24 10:25N 59°53' E 030°11'0 0.0
2014-Jul-24 09:28N 59°53' E 030°11'0 0.0
2014-Jul-24 03:31N 59°53' E 030°11'1 0.8
2014-Jul-24 02:33N 59°53' E 030°10'7911.3
2014-Jul-23 19:31N 60°07' E 027°34'1413.5
2014-Jul-23 18:27N 59°59' E 027°09'1313.2
2014-Jul-23 17:29N 59°59' E 026°44'1213.5
2014-Jul-23 16:33N 59°57' E 026°19'1413.3
2014-Jul-23 15:30N 59°53' E 025°52'4213.0
2014-Jul-23 12:15N 59°44' E 024°30'4512.0
2014-Jul-23 08:29N 59°36' E 023°02'2311.9
2014-Jul-23 06:32N 59°35' E 022°16'1211.9
2014-Jul-23 05:33N 59°34' E 021°53'1211.9
2014-Jul-23 04:33N 59°36' E 021°30'1212.2
2014-Jul-23 03:33N 59°47' E 021°21'1311.7
2014-Jul-23 02:29N 59°56' E 021°39'1112.0
2014-Jul-23 01:33N 60°07' E 021°41'1010.3
2014-Jul-23 00:32N 60°16' E 021°53'44 1.6
2014-Jul-21 20:33N 59°32' E 021°44'310.9
2014-Jul-21 20:18N 59°32' E 021°49'811.1
2014-Jul-21 19:33N 59°33' E 022°05'1111.0
2014-Jul-21 18:33N 59°35' E 022°27'1110.7
2014-Jul-21 17:33N 59°37' E 022°47'1111.0
2014-Jul-21 16:33N 59°39' E 023°09'1110.9
2014-Jul-21 15:33N 59°41' E 023°30'1110.7
2014-Jul-21 14:33N 59°44' E 023°51'1110.6
2014-Jul-21 13:32N 59°46' E 024°12'1110.7
2014-Jul-21 12:33N 59°48' E 024°32'1110.6
2014-Jul-21 11:33N 59°50' E 024°53'1210.9
2014-Jul-21 10:29N 59°52' E 025°16'1011.2
2014-Jul-21 09:33N 59°55' E 025°36'1310.8
2014-Jul-21 08:23N 59°57' E 026°01'1910.6
2014-Jul-21 06:33N 60°01' E 026°39'57 2.3
2014-Jul-20 06:16N 59°41' E 028°25'36 2.0
2014-Jul-19 12:04N 60°08' E 027°36'913.0
2014-Jul-19 11:24N 60°03' E 027°21'1112.9
2014-Jul-19 10:33N 59°58' E 027°01'1313.2
2014-Jul-19 09:33N 59°59' E 026°35'1313.2
2014-Jul-19 08:33N 59°55' E 026°10'1313.0
2014-Jul-19 07:33N 59°52' E 025°45'1312.8
2014-Jul-19 06:33N 59°49' E 025°20'  

Dump ship's entire track history